sensor_id;sensor_type;location;lat;lon;timestamp;temperature;humidity
774;DHT22;370;48.810;9.150;2023-12-20T00:00:56;7.60;4.20
774;DHT22;370;48.810;9.150;2023-12-20T00:03:23;7.60;3.30
774;DHT22;370;48.810;9.150;2023-12-20T00:05:50;7.50;3.40
774;DHT22;370;48.810;9.150;2023-12-20T00:08:17;7.50;4.20
774;DHT22;370;48.810;9.150;2023-12-20T00:10:44;7.50;4.40
774;DHT22;370;48.810;9.150;2023-12-20T00:13:12;7.50;5.70
774;DHT22;370;48.810;9.150;2023-12-20T00:15:39;7.40;6.90
774;DHT22;370;48.810;9.150;2023-12-20T00:18:05;7.40;8.60
774;DHT22;370;48.810;9.150;2023-12-20T00:20:32;7.40;10.50
774;DHT22;370;48.810;9.150;2023-12-20T00:22:59;7.40;11.50
774;DHT22;370;48.810;9.150;2023-12-20T00:25:26;7.40;12.90
774;DHT22;370;48.810;9.150;2023-12-20T00:27:52;7.40;12.90
774;DHT22;370;48.810;9.150;2023-12-20T00:30:20;7.40;13.10
774;DHT22;370;48.810;9.150;2023-12-20T00:32:47;7.40;12.40
774;DHT22;370;48.810;9.150;2023-12-20T00:35:14;7.50;12.90
774;DHT22;370;48.810;9.150;2023-12-20T00:37:41;7.50;15.10
774;DHT22;370;48.810;9.150;2023-12-20T00:40:09;7.50;15.90
774;DHT22;370;48.810;9.150;2023-12-20T00:42:36;7.50;20.40
774;DHT22;370;48.810;9.150;2023-12-20T00:45:04;7.60;24.50
774;DHT22;370;48.810;9.150;2023-12-20T00:47:32;7.60;28.50
774;DHT22;370;48.810;9.150;2023-12-20T00:49:59;7.60;26.60
774;DHT22;370;48.810;9.150;2023-12-20T00:52:25;7.60;28.10
774;DHT22;370;48.810;9.150;2023-12-20T00:54:52;7.50;25.10
774;DHT22;370;48.810;9.150;2023-12-20T00:57:19;7.50;27.70
774;DHT22;370;48.810;9.150;2023-12-20T00:59:46;7.50;29.80
774;DHT22;370;48.810;9.150;2023-12-20T01:02:12;7.50;30.00
774;DHT22;370;48.810;9.150;2023-12-20T01:04:40;7.50;34.30
774;DHT22;370;48.810;9.150;2023-12-20T01:07:08;7.50;35.70
774;DHT22;370;48.810;9.150;2023-12-20T01:09:34;7.50;33.10
774;DHT22;370;48.810;9.150;2023-12-20T01:12:01;7.40;33.10
774;DHT22;370;48.810;9.150;2023-12-20T01:14:28;7.40;36.00
774;DHT22;370;48.810;9.150;2023-12-20T01:16:55;7.30;39.00
774;DHT22;370;48.810;9.150;2023-12-20T01:19:22;7.20;42.40
774;DHT22;370;48.810;9.150;2023-12-20T01:21:50;7.20;45.20
774;DHT22;370;48.810;9.150;2023-12-20T01:24:17;7.20;47.60
774;DHT22;370;48.810;9.150;2023-12-20T01:26:44;7.20;47.70
774;DHT22;370;48.810;9.150;2023-12-20T01:29:10;7.30;50.10
774;DHT22;370;48.810;9.150;2023-12-20T01:31:37;7.30;50.40
774;DHT22;370;48.810;9.150;2023-12-20T01:34:04;7.30;50.80
774;DHT22;370;48.810;9.150;2023-12-20T01:36:31;7.30;51.00
774;DHT22;370;48.810;9.150;2023-12-20T01:38:59;7.30;50.80
774;DHT22;370;48.810;9.150;2023-12-20T01:41:25;7.30;50.00
774;DHT22;370;48.810;9.150;2023-12-20T01:43:52;7.30;50.30
774;DHT22;370;48.810;9.150;2023-12-20T01:46:20;7.30;49.30
774;DHT22;370;48.810;9.150;2023-12-20T01:48:47;7.30;49.30
774;DHT22;370;48.810;9.150;2023-12-20T01:51:14;7.20;50.50
774;DHT22;370;48.810;9.150;2023-12-20T01:53:42;7.30;51.00
774;DHT22;370;48.810;9.150;2023-12-20T01:56:11;7.30;50.90
774;DHT22;370;48.810;9.150;2023-12-20T01:58:41;7.30;51.30
774;DHT22;370;48.810;9.150;2023-12-20T02:01:10;7.30;50.60
774;DHT22;370;48.810;9.150;2023-12-20T02:03:37;7.30;51.30
774;DHT22;370;48.810;9.150;2023-12-20T02:06:04;7.30;51.80
774;DHT22;370;48.810;9.150;2023-12-20T02:08:31;7.30;51.80
774;DHT22;370;48.810;9.150;2023-12-20T02:10:59;7.30;51.10
774;DHT22;370;48.810;9.150;2023-12-20T02:13:27;7.20;51.80
774;DHT22;370;48.810;9.150;2023-12-20T02:15:54;7.20;51.30
774;DHT22;370;48.810;9.150;2023-12-20T02:18:21;7.20;51.10
774;DHT22;370;48.810;9.150;2023-12-20T02:20:48;7.10;52.00
774;DHT22;370;48.810;9.150;2023-12-20T02:23:16;7.10;51.60
774;DHT22;370;48.810;9.150;2023-12-20T02:25:43;7.10;53.30
774;DHT22;370;48.810;9.150;2023-12-20T02:28:10;7.00;50.90
774;DHT22;370;48.810;9.150;2023-12-20T02:30:37;7.10;54.00
774;DHT22;370;48.810;9.150;2023-12-20T02:33:07;7.10;54.20
774;DHT22;370;48.810;9.150;2023-12-20T02:35:34;7.00;52.20
774;DHT22;370;48.810;9.150;2023-12-20T02:38:00;6.90;52.20
774;DHT22;370;48.810;9.150;2023-12-20T02:40:28;7.00;54.30
774;DHT22;370;48.810;9.150;2023-12-20T02:42:55;7.10;54.60
774;DHT22;370;48.810;9.150;2023-12-20T02:45:22;7.00;53.90
774;DHT22;370;48.810;9.150;2023-12-20T02:47:49;7.00;53.70
774;DHT22;370;48.810;9.150;2023-12-20T02:50:15;7.00;53.70
774;DHT22;370;48.810;9.150;2023-12-20T02:52:44;7.00;53.90
774;DHT22;370;48.810;9.150;2023-12-20T02:55:11;7.00;54.80
774;DHT22;370;48.810;9.150;2023-12-20T02:57:40;6.90;52.70
774;DHT22;370;48.810;9.150;2023-12-20T03:00:08;7.00;55.00
774;DHT22;370;48.810;9.150;2023-12-20T03:02:35;7.00;55.10
774;DHT22;370;48.810;9.150;2023-12-20T03:05:01;7.00;54.30
774;DHT22;370;48.810;9.150;2023-12-20T03:07:28;6.90;54.10
774;DHT22;370;48.810;9.150;2023-12-20T03:09:55;6.90;51.50
774;DHT22;370;48.810;9.150;2023-12-20T03:12:22;6.90;50.60
774;DHT22;370;48.810;9.150;2023-12-20T03:14:50;6.90;50.30
774;DHT22;370;48.810;9.150;2023-12-20T03:17:16;6.90;49.80
774;DHT22;370;48.810;9.150;2023-12-20T03:19:44;6.90;49.00
774;DHT22;370;48.810;9.150;2023-12-20T03:22:11;6.90;49.00
774;DHT22;370;48.810;9.150;2023-12-20T03:24:37;6.80;49.30
774;DHT22;370;48.810;9.150;2023-12-20T03:27:04;6.70;49.40
774;DHT22;370;48.810;9.150;2023-12-20T03:29:31;6.70;50.20
774;DHT22;370;48.810;9.150;2023-12-20T03:31:59;6.70;50.90
774;DHT22;370;48.810;9.150;2023-12-20T03:34:26;6.70;48.80
774;DHT22;370;48.810;9.150;2023-12-20T03:36:54;6.70;46.50
774;DHT22;370;48.810;9.150;2023-12-20T03:39:21;6.60;46.10
774;DHT22;370;48.810;9.150;2023-12-20T03:41:48;6.60;46.30
774;DHT22;370;48.810;9.150;2023-12-20T03:44:14;6.60;46.40
774;DHT22;370;48.810;9.150;2023-12-20T03:46:41;6.60;47.00
774;DHT22;370;48.810;9.150;2023-12-20T03:49:09;6.60;45.50
774;DHT22;370;48.810;9.150;2023-12-20T03:51:36;6.60;45.30
774;DHT22;370;48.810;9.150;2023-12-20T03:54:03;6.50;43.30
774;DHT22;370;48.810;9.150;2023-12-20T03:56:29;6.50;44.10
774;DHT22;370;48.810;9.150;2023-12-20T03:58:56;6.50;42.70
774;DHT22;370;48.810;9.150;2023-12-20T04:01:23;6.50;42.90
774;DHT22;370;48.810;9.150;2023-12-20T04:03:49;6.40;44.10
774;DHT22;370;48.810;9.150;2023-12-20T04:06:18;6.30;44.90
774;DHT22;370;48.810;9.150;2023-12-20T04:08:45;6.40;43.70
774;DHT22;370;48.810;9.150;2023-12-20T04:11:11;6.40;42.00
774;DHT22;370;48.810;9.150;2023-12-20T04:13:38;6.30;43.20
774;DHT22;370;48.810;9.150;2023-12-20T04:16:05;6.30;44.10
774;DHT22;370;48.810;9.150;2023-12-20T04:18:32;6.20;43.80
774;DHT22;370;48.810;9.150;2023-12-20T04:20:59;6.20;44.10
774;DHT22;370;48.810;9.150;2023-12-20T04:23:27;6.10;44.90
774;DHT22;370;48.810;9.150;2023-12-20T04:25:54;6.10;44.70
774;DHT22;370;48.810;9.150;2023-12-20T04:28:22;6.10;45.10
774;DHT22;370;48.810;9.150;2023-12-20T04:30:48;6.10;45.60
774;DHT22;370;48.810;9.150;2023-12-20T04:33:15;6.10;44.90
774;DHT22;370;48.810;9.150;2023-12-20T04:35:42;6.10;44.10
774;DHT22;370;48.810;9.150;2023-12-20T04:38:11;6.10;45.10
774;DHT22;370;48.810;9.150;2023-12-20T04:40:39;6.00;44.30
774;DHT22;370;48.810;9.150;2023-12-20T04:43:06;6.00;46.70
774;DHT22;370;48.810;9.150;2023-12-20T04:45:33;6.00;48.20
774;DHT22;370;48.810;9.150;2023-12-20T04:48:01;6.00;46.80
774;DHT22;370;48.810;9.150;2023-12-20T04:50:28;6.10;45.50
774;DHT22;370;48.810;9.150;2023-12-20T04:52:54;6.10;43.90
774;DHT22;370;48.810;9.150;2023-12-20T04:55:21;6.10;43.10
774;DHT22;370;48.810;9.150;2023-12-20T04:57:49;6.00;45.50
774;DHT22;370;48.810;9.150;2023-12-20T05:00:16;6.10;46.60
774;DHT22;370;48.810;9.150;2023-12-20T05:02:43;6.10;44.50
774;DHT22;370;48.810;9.150;2023-12-20T05:05:10;6.10;44.60
774;DHT22;370;48.810;9.150;2023-12-20T05:07:37;6.10;42.60
774;DHT22;370;48.810;9.150;2023-12-20T05:10:04;6.10;43.10
774;DHT22;370;48.810;9.150;2023-12-20T05:12:31;6.10;42.30
774;DHT22;370;48.810;9.150;2023-12-20T05:14:59;6.10;42.80
774;DHT22;370;48.810;9.150;2023-12-20T05:17:26;6.10;42.60
774;DHT22;370;48.810;9.150;2023-12-20T05:19:53;6.10;43.60
774;DHT22;370;48.810;9.150;2023-12-20T05:22:19;6.10;46.90
774;DHT22;370;48.810;9.150;2023-12-20T05:24:47;6.20;43.20
774;DHT22;370;48.810;9.150;2023-12-20T05:27:13;6.20;42.60
774;DHT22;370;48.810;9.150;2023-12-20T05:29:40;6.10;43.30
774;DHT22;370;48.810;9.150;2023-12-20T05:32:09;6.10;44.00
774;DHT22;370;48.810;9.150;2023-12-20T05:34:36;6.20;43.40
774;DHT22;370;48.810;9.150;2023-12-20T05:37:03;6.20;43.90
774;DHT22;370;48.810;9.150;2023-12-20T05:39:30;6.20;44.90
774;DHT22;370;48.810;9.150;2023-12-20T05:41:57;6.20;45.20
774;DHT22;370;48.810;9.150;2023-12-20T05:44:24;6.20;45.00
774;DHT22;370;48.810;9.150;2023-12-20T05:46:50;6.20;45.80
774;DHT22;370;48.810;9.150;2023-12-20T05:49:18;6.30;47.70
774;DHT22;370;48.810;9.150;2023-12-20T05:51:45;6.30;47.30
774;DHT22;370;48.810;9.150;2023-12-20T05:54:12;6.30;47.20
774;DHT22;370;48.810;9.150;2023-12-20T05:56:39;6.30;47.80
774;DHT22;370;48.810;9.150;2023-12-20T05:59:06;6.30;48.50
774;DHT22;370;48.810;9.150;2023-12-20T06:01:33;6.40;48.60
774;DHT22;370;48.810;9.150;2023-12-20T06:04:00;6.30;48.80
774;DHT22;370;48.810;9.150;2023-12-20T06:06:28;6.30;49.90
774;DHT22;370;48.810;9.150;2023-12-20T06:08:56;6.30;50.70
774;DHT22;370;48.810;9.150;2023-12-20T06:11:22;6.40;50.40
774;DHT22;370;48.810;9.150;2023-12-20T06:13:49;6.30;50.20
774;DHT22;370;48.810;9.150;2023-12-20T06:16:18;6.30;52.30
774;DHT22;370;48.810;9.150;2023-12-20T06:18:45;6.30;53.60
774;DHT22;370;48.810;9.150;2023-12-20T06:21:11;6.30;53.40
774;DHT22;370;48.810;9.150;2023-12-20T06:23:41;6.30;54.30
774;DHT22;370;48.810;9.150;2023-12-20T06:26:07;6.40;55.40
774;DHT22;370;48.810;9.150;2023-12-20T06:28:34;6.40;53.90
774;DHT22;370;48.810;9.150;2023-12-20T06:31:01;6.40;54.60
774;DHT22;370;48.810;9.150;2023-12-20T06:33:28;6.40;54.60
774;DHT22;370;48.810;9.150;2023-12-20T06:35:56;6.40;53.40
774;DHT22;370;48.810;9.150;2023-12-20T06:38:23;6.40;53.20
774;DHT22;370;48.810;9.150;2023-12-20T06:40:51;6.40;54.60
774;DHT22;370;48.810;9.150;2023-12-20T06:43:18;6.40;55.00
774;DHT22;370;48.810;9.150;2023-12-20T06:45:44;6.40;55.20
774;DHT22;370;48.810;9.150;2023-12-20T06:48:11;6.50;56.50
774;DHT22;370;48.810;9.150;2023-12-20T06:50:38;6.50;55.90
774;DHT22;370;48.810;9.150;2023-12-20T06:53:05;6.60;55.10
774;DHT22;370;48.810;9.150;2023-12-20T06:55:33;6.60;53.60
774;DHT22;370;48.810;9.150;2023-12-20T06:58:02;6.60;52.50
774;DHT22;370;48.810;9.150;2023-12-20T07:00:30;6.60;51.80
774;DHT22;370;48.810;9.150;2023-12-20T07:02:56;6.60;52.90
774;DHT22;370;48.810;9.150;2023-12-20T07:05:24;6.60;52.50
774;DHT22;370;48.810;9.150;2023-12-20T07:07:52;6.60;53.40
774;DHT22;370;48.810;9.150;2023-12-20T07:10:19;6.60;52.00
774;DHT22;370;48.810;9.150;2023-12-20T07:12:48;6.70;47.80
774;DHT22;370;48.810;9.150;2023-12-20T07:15:18;6.60;47.50
774;DHT22;370;48.810;9.150;2023-12-20T07:17:48;6.50;49.90
774;DHT22;370;48.810;9.150;2023-12-20T07:20:15;7.30;63.70
774;DHT22;370;48.810;9.150;2023-12-20T07:22:42;7.20;43.10
774;DHT22;370;48.810;9.150;2023-12-20T07:25:09;7.10;39.10
774;DHT22;370;48.810;9.150;2023-12-20T07:27:36;7.00;40.50
774;DHT22;370;48.810;9.150;2023-12-20T07:30:03;6.90;39.10
774;DHT22;370;48.810;9.150;2023-12-20T07:32:32;6.80;38.20
774;DHT22;370;48.810;9.150;2023-12-20T07:34:58;6.70;36.40
774;DHT22;370;48.810;9.150;2023-12-20T07:37:25;6.60;37.40
774;DHT22;370;48.810;9.150;2023-12-20T07:39:52;6.50;35.40
774;DHT22;370;48.810;9.150;2023-12-20T07:42:18;6.40;31.80
774;DHT22;370;48.810;9.150;2023-12-20T07:44:47;6.40;31.20
774;DHT22;370;48.810;9.150;2023-12-20T07:47:14;6.30;32.30
774;DHT22;370;48.810;9.150;2023-12-20T07:49:46;6.30;31.80
774;DHT22;370;48.810;9.150;2023-12-20T07:52:12;6.30;31.90
774;DHT22;370;48.810;9.150;2023-12-20T07:54:40;6.30;30.60
774;DHT22;370;48.810;9.150;2023-12-20T07:57:06;6.10;28.70
774;DHT22;370;48.810;9.150;2023-12-20T07:59:33;6.00;29.60
774;DHT22;370;48.810;9.150;2023-12-20T08:02:00;6.00;29.80
774;DHT22;370;48.810;9.150;2023-12-20T08:04:27;5.90;28.50
774;DHT22;370;48.810;9.150;2023-12-20T08:06:55;5.80;28.90
774;DHT22;370;48.810;9.150;2023-12-20T08:09:21;5.80;29.80
774;DHT22;370;48.810;9.150;2023-12-20T08:11:49;5.70;30.10
774;DHT22;370;48.810;9.150;2023-12-20T08:14:16;5.60;31.20
774;DHT22;370;48.810;9.150;2023-12-20T08:16:42;5.70;31.10
774;DHT22;370;48.810;9.150;2023-12-20T08:19:09;5.70;29.50
774;DHT22;370;48.810;9.150;2023-12-20T08:21:36;5.70;29.60
774;DHT22;370;48.810;9.150;2023-12-20T08:24:05;5.80;28.50
774;DHT22;370;48.810;9.150;2023-12-20T08:26:32;5.90;25.10
774;DHT22;370;48.810;9.150;2023-12-20T08:28:59;5.90;24.80
774;DHT22;370;48.810;9.150;2023-12-20T08:31:26;5.90;22.50
774;DHT22;370;48.810;9.150;2023-12-20T08:33:52;5.80;21.50
774;DHT22;370;48.810;9.150;2023-12-20T08:36:20;5.70;22.50
774;DHT22;370;48.810;9.150;2023-12-20T08:38:48;5.70;23.50
774;DHT22;370;48.810;9.150;2023-12-20T08:41:17;5.70;22.80
774;DHT22;370;48.810;9.150;2023-12-20T08:43:46;5.70;19.30
774;DHT22;370;48.810;9.150;2023-12-20T08:46:15;5.60;20.20
774;DHT22;370;48.810;9.150;2023-12-20T08:48:42;5.50;20.10
774;DHT22;370;48.810;9.150;2023-12-20T08:51:09;5.50;20.10
774;DHT22;370;48.810;9.150;2023-12-20T08:53:37;5.50;20.10
774;DHT22;370;48.810;9.150;2023-12-20T08:56:04;5.50;21.10
774;DHT22;370;48.810;9.150;2023-12-20T08:58:32;5.60;20.10
774;DHT22;370;48.810;9.150;2023-12-20T09:01:01;5.60;20.20
774;DHT22;370;48.810;9.150;2023-12-20T09:03:28;6.10;25.00
774;DHT22;370;48.810;9.150;2023-12-20T09:05:54;7.60;13.00
774;DHT22;370;48.810;9.150;2023-12-20T09:08:21;9.30;1.00
774;DHT22;370;48.810;9.150;2023-12-20T09:10:48;10.80;1.00
774;DHT22;370;48.810;9.150;2023-12-20T09:13:15;12.30;1.00
774;DHT22;370;48.810;9.150;2023-12-20T09:15:43;13.60;1.00
774;DHT22;370;48.810;9.150;2023-12-20T09:18:09;15.00;1.00
774;DHT22;370;48.810;9.150;2023-12-20T09:20:36;16.40;1.00
774;DHT22;370;48.810;9.150;2023-12-20T09:23:03;17.50;1.00
774;DHT22;370;48.810;9.150;2023-12-20T09:25:30;18.40;1.00
774;DHT22;370;48.810;9.150;2023-12-20T09:27:57;18.80;1.00
774;DHT22;370;48.810;9.150;2023-12-20T09:30:24;19.40;1.00
774;DHT22;370;48.810;9.150;2023-12-20T09:32:52;19.80;1.00
774;DHT22;370;48.810;9.150;2023-12-20T09:35:18;20.50;1.00
774;DHT22;370;48.810;9.150;2023-12-20T09:37:45;20.70;1.00
774;DHT22;370;48.810;9.150;2023-12-20T09:40:13;20.80;1.00
774;DHT22;370;48.810;9.150;2023-12-20T09:42:45;20.60;1.00
774;DHT22;370;48.810;9.150;2023-12-20T09:45:15;20.90;1.00
774;DHT22;370;48.810;9.150;2023-12-20T09:47:43;21.40;1.00
774;DHT22;370;48.810;9.150;2023-12-20T09:50:12;21.00;1.00
774;DHT22;370;48.810;9.150;2023-12-20T09:52:39;21.50;1.00
774;DHT22;370;48.810;9.150;2023-12-20T09:55:07;21.30;1.00
774;DHT22;370;48.810;9.150;2023-12-20T09:57:35;20.30;1.00
774;DHT22;370;48.810;9.150;2023-12-20T10:00:01;20.60;1.00
774;DHT22;370;48.810;9.150;2023-12-20T10:02:29;21.10;1.00
774;DHT22;370;48.810;9.150;2023-12-20T10:04:57;19.50;1.00
774;DHT22;370;48.810;9.150;2023-12-20T10:07:27;17.60;1.00
774;DHT22;370;48.810;9.150;2023-12-20T10:09:54;16.00;1.00
774;DHT22;370;48.810;9.150;2023-12-20T10:12:21;15.00;1.00
774;DHT22;370;48.810;9.150;2023-12-20T10:14:48;14.60;1.00
774;DHT22;370;48.810;9.150;2023-12-20T10:17:16;14.10;1.00
774;DHT22;370;48.810;9.150;2023-12-20T10:19:44;13.50;1.00
774;DHT22;370;48.810;9.150;2023-12-20T10:22:10;12.50;1.00
774;DHT22;370;48.810;9.150;2023-12-20T10:24:40;11.90;1.00
774;DHT22;370;48.810;9.150;2023-12-20T10:27:08;11.30;1.00
774;DHT22;370;48.810;9.150;2023-12-20T10:29:35;10.80;1.00
774;DHT22;370;48.810;9.150;2023-12-20T10:32:21;10.40;1.00
774;DHT22;370;48.810;9.150;2023-12-20T10:34:49;10.20;1.00
774;DHT22;370;48.810;9.150;2023-12-20T10:37:18;10.10;1.00
774;DHT22;370;48.810;9.150;2023-12-20T10:39:49;10.10;1.00
774;DHT22;370;48.810;9.150;2023-12-20T10:42:17;9.80;1.00
774;DHT22;370;48.810;9.150;2023-12-20T10:44:44;9.60;1.00
774;DHT22;370;48.810;9.150;2023-12-20T10:47:11;9.40;1.00
774;DHT22;370;48.810;9.150;2023-12-20T10:49:40;9.40;1.00
774;DHT22;370;48.810;9.150;2023-12-20T10:52:09;9.40;1.00
774;DHT22;370;48.810;9.150;2023-12-20T10:54:38;9.20;1.00
774;DHT22;370;48.810;9.150;2023-12-20T10:57:09;9.10;1.00
774;DHT22;370;48.810;9.150;2023-12-20T10:59:37;9.10;1.00
774;DHT22;370;48.810;9.150;2023-12-20T11:02:04;9.00;1.00
774;DHT22;370;48.810;9.150;2023-12-20T11:04:38;8.80;1.00
774;DHT22;370;48.810;9.150;2023-12-20T11:07:15;8.90;1.00
774;DHT22;370;48.810;9.150;2023-12-20T11:09:49;9.20;1.00
774;DHT22;370;48.810;9.150;2023-12-20T11:12:27;9.40;1.00
774;DHT22;370;48.810;9.150;2023-12-20T11:14:56;9.50;1.00
774;DHT22;370;48.810;9.150;2023-12-20T11:17:27;9.60;1.00
774;DHT22;370;48.810;9.150;2023-12-20T11:20:07;9.10;1.00
774;DHT22;370;48.810;9.150;2023-12-20T11:22:37;9.00;1.00
774;DHT22;370;48.810;9.150;2023-12-20T11:25:08;8.90;1.00
774;DHT22;370;48.810;9.150;2023-12-20T11:27:41;8.60;1.00
774;DHT22;370;48.810;9.150;2023-12-20T11:30:09;8.40;1.00
774;DHT22;370;48.810;9.150;2023-12-20T11:32:36;8.40;1.00
774;DHT22;370;48.810;9.150;2023-12-20T11:35:18;8.20;1.00
774;DHT22;370;48.810;9.150;2023-12-20T11:38:19;8.00;1.00
774;DHT22;370;48.810;9.150;2023-12-20T11:40:59;7.90;1.00
774;DHT22;370;48.810;9.150;2023-12-20T11:43:57;7.90;1.00
774;DHT22;370;48.810;9.150;2023-12-20T11:46:47;8.00;1.00
774;DHT22;370;48.810;9.150;2023-12-20T11:49:29;8.00;1.00
774;DHT22;370;48.810;9.150;2023-12-20T11:51:59;7.90;1.00
774;DHT22;370;48.810;9.150;2023-12-20T11:54:26;7.80;1.00
774;DHT22;370;48.810;9.150;2023-12-20T11:56:53;7.70;1.00
774;DHT22;370;48.810;9.150;2023-12-20T11:59:21;7.70;1.00
774;DHT22;370;48.810;9.150;2023-12-20T12:01:48;7.70;1.00
774;DHT22;370;48.810;9.150;2023-12-20T12:04:16;7.60;1.00
774;DHT22;370;48.810;9.150;2023-12-20T12:06:43;7.70;1.00
774;DHT22;370;48.810;9.150;2023-12-20T12:09:10;7.80;1.00
774;DHT22;370;48.810;9.150;2023-12-20T12:11:37;7.80;1.00
774;DHT22;370;48.810;9.150;2023-12-20T12:14:04;7.80;1.00
774;DHT22;370;48.810;9.150;2023-12-20T12:16:33;7.80;1.00
774;DHT22;370;48.810;9.150;2023-12-20T12:18:59;7.90;1.00
774;DHT22;370;48.810;9.150;2023-12-20T12:21:26;8.10;1.00
774;DHT22;370;48.810;9.150;2023-12-20T12:24:19;8.20;1.00
774;DHT22;370;48.810;9.150;2023-12-20T12:26:50;8.40;1.00
774;DHT22;370;48.810;9.150;2023-12-20T12:29:17;8.60;1.00
774;DHT22;370;48.810;9.150;2023-12-20T12:31:46;8.60;1.00
774;DHT22;370;48.810;9.150;2023-12-20T12:34:13;8.60;1.00
774;DHT22;370;48.810;9.150;2023-12-20T12:36:41;8.70;1.00
774;DHT22;370;48.810;9.150;2023-12-20T12:39:08;8.40;1.00
774;DHT22;370;48.810;9.150;2023-12-20T12:41:35;8.30;1.00
774;DHT22;370;48.810;9.150;2023-12-20T12:44:02;8.20;1.00
774;DHT22;370;48.810;9.150;2023-12-20T12:46:34;8.20;1.00
774;DHT22;370;48.810;9.150;2023-12-20T12:49:07;8.20;1.00
774;DHT22;370;48.810;9.150;2023-12-20T12:54:15;8.40;1.00
774;DHT22;370;48.810;9.150;2023-12-20T12:56:43;8.40;1.00
774;DHT22;370;48.810;9.150;2023-12-20T12:59:10;8.40;1.00
774;DHT22;370;48.810;9.150;2023-12-20T13:01:37;8.30;1.00
774;DHT22;370;48.810;9.150;2023-12-20T13:04:06;8.30;1.00
774;DHT22;370;48.810;9.150;2023-12-20T13:06:36;8.40;1.00
774;DHT22;370;48.810;9.150;2023-12-20T13:09:03;8.50;1.00
774;DHT22;370;48.810;9.150;2023-12-20T13:11:31;8.40;1.00
774;DHT22;370;48.810;9.150;2023-12-20T13:13:58;8.40;1.00
774;DHT22;370;48.810;9.150;2023-12-20T13:16:25;8.20;1.00
774;DHT22;370;48.810;9.150;2023-12-20T13:18:52;8.20;1.00
774;DHT22;370;48.810;9.150;2023-12-20T13:21:20;8.20;1.00
774;DHT22;370;48.810;9.150;2023-12-20T13:23:47;8.10;1.00
774;DHT22;370;48.810;9.150;2023-12-20T13:26:14;7.80;1.00
774;DHT22;370;48.810;9.150;2023-12-20T13:28:41;7.80;1.00
774;DHT22;370;48.810;9.150;2023-12-20T13:31:07;7.80;1.00
774;DHT22;370;48.810;9.150;2023-12-20T13:33:34;7.90;1.00
774;DHT22;370;48.810;9.150;2023-12-20T13:36:01;8.00;1.00
774;DHT22;370;48.810;9.150;2023-12-20T13:38:29;8.00;1.00
774;DHT22;370;48.810;9.150;2023-12-20T13:40:56;8.00;1.00
774;DHT22;370;48.810;9.150;2023-12-20T13:43:24;8.00;1.00
774;DHT22;370;48.810;9.150;2023-12-20T13:45:51;7.90;1.00
774;DHT22;370;48.810;9.150;2023-12-20T13:48:18;7.90;1.00
774;DHT22;370;48.810;9.150;2023-12-20T13:50:45;7.80;1.00
774;DHT22;370;48.810;9.150;2023-12-20T13:53:11;7.70;1.00
774;DHT22;370;48.810;9.150;2023-12-20T13:55:41;7.60;1.00
774;DHT22;370;48.810;9.150;2023-12-20T13:58:07;7.50;1.00
774;DHT22;370;48.810;9.150;2023-12-20T14:00:35;7.50;1.00
774;DHT22;370;48.810;9.150;2023-12-20T14:03:03;7.40;1.00
774;DHT22;370;48.810;9.150;2023-12-20T14:05:30;7.30;1.00
774;DHT22;370;48.810;9.150;2023-12-20T14:07:57;7.30;1.00
774;DHT22;370;48.810;9.150;2023-12-20T14:10:24;7.30;1.00
774;DHT22;370;48.810;9.150;2023-12-20T14:12:53;7.20;1.00
774;DHT22;370;48.810;9.150;2023-12-20T14:15:20;7.20;1.00
774;DHT22;370;48.810;9.150;2023-12-20T14:17:46;7.20;1.00
774;DHT22;370;48.810;9.150;2023-12-20T14:20:13;7.20;1.00
774;DHT22;370;48.810;9.150;2023-12-20T14:22:40;7.10;1.00
774;DHT22;370;48.810;9.150;2023-12-20T14:25:10;7.10;1.00
774;DHT22;370;48.810;9.150;2023-12-20T14:27:38;7.20;1.00
774;DHT22;370;48.810;9.150;2023-12-20T14:30:08;7.20;1.00
774;DHT22;370;48.810;9.150;2023-12-20T14:32:36;7.20;1.00
774;DHT22;370;48.810;9.150;2023-12-20T14:35:04;7.10;1.00
774;DHT22;370;48.810;9.150;2023-12-20T14:37:31;7.00;1.00
774;DHT22;370;48.810;9.150;2023-12-20T14:39:58;7.00;1.00
774;DHT22;370;48.810;9.150;2023-12-20T14:42:25;6.90;1.00
774;DHT22;370;48.810;9.150;2023-12-20T14:44:52;6.80;1.00
774;DHT22;370;48.810;9.150;2023-12-20T14:47:21;6.80;1.00
774;DHT22;370;48.810;9.150;2023-12-20T14:49:47;6.80;1.00
774;DHT22;370;48.810;9.150;2023-12-20T14:52:14;6.70;1.00
774;DHT22;370;48.810;9.150;2023-12-20T14:54:41;6.70;1.00
774;DHT22;370;48.810;9.150;2023-12-20T14:57:09;6.70;1.00
774;DHT22;370;48.810;9.150;2023-12-20T14:59:35;6.70;1.00
774;DHT22;370;48.810;9.150;2023-12-20T15:02:02;6.70;1.00
774;DHT22;370;48.810;9.150;2023-12-20T15:04:31;6.70;1.00
774;DHT22;370;48.810;9.150;2023-12-20T15:06:58;6.70;1.00
774;DHT22;370;48.810;9.150;2023-12-20T15:09:26;6.70;1.00
774;DHT22;370;48.810;9.150;2023-12-20T15:11:54;6.60;1.00
774;DHT22;370;48.810;9.150;2023-12-20T15:14:21;6.60;1.00
774;DHT22;370;48.810;9.150;2023-12-20T15:16:48;6.60;1.00
774;DHT22;370;48.810;9.150;2023-12-20T15:19:15;6.60;1.00
774;DHT22;370;48.810;9.150;2023-12-20T15:21:43;6.50;1.00
774;DHT22;370;48.810;9.150;2023-12-20T15:24:10;6.50;1.00
774;DHT22;370;48.810;9.150;2023-12-20T15:26:40;6.50;1.00
774;DHT22;370;48.810;9.150;2023-12-20T15:29:07;6.50;1.00
774;DHT22;370;48.810;9.150;2023-12-20T15:31:34;6.50;1.00
774;DHT22;370;48.810;9.150;2023-12-20T15:34:02;6.50;1.00
774;DHT22;370;48.810;9.150;2023-12-20T15:36:29;6.50;1.00
774;DHT22;370;48.810;9.150;2023-12-20T15:38:57;6.50;1.00
774;DHT22;370;48.810;9.150;2023-12-20T15:41:24;6.50;1.00
774;DHT22;370;48.810;9.150;2023-12-20T15:43:51;6.60;1.00
774;DHT22;370;48.810;9.150;2023-12-20T15:46:18;6.70;1.00
774;DHT22;370;48.810;9.150;2023-12-20T15:48:44;6.70;1.00
774;DHT22;370;48.810;9.150;2023-12-20T15:51:11;6.70;1.00
774;DHT22;370;48.810;9.150;2023-12-20T15:53:38;6.70;1.00
774;DHT22;370;48.810;9.150;2023-12-20T15:56:07;6.70;1.00
774;DHT22;370;48.810;9.150;2023-12-20T15:58:34;6.70;1.00
774;DHT22;370;48.810;9.150;2023-12-20T16:01:00;6.70;1.00
774;DHT22;370;48.810;9.150;2023-12-20T16:03:27;6.60;1.00
774;DHT22;370;48.810;9.150;2023-12-20T16:05:54;6.60;1.00
774;DHT22;370;48.810;9.150;2023-12-20T16:08:21;6.60;1.00
774;DHT22;370;48.810;9.150;2023-12-20T16:10:47;6.50;1.00
774;DHT22;370;48.810;9.150;2023-12-20T16:13:16;6.50;1.00
774;DHT22;370;48.810;9.150;2023-12-20T16:15:42;6.50;1.00
774;DHT22;370;48.810;9.150;2023-12-20T16:18:09;6.50;1.00
774;DHT22;370;48.810;9.150;2023-12-20T16:20:36;6.50;1.00
774;DHT22;370;48.810;9.150;2023-12-20T16:23:03;6.40;1.00
774;DHT22;370;48.810;9.150;2023-12-20T16:25:30;6.40;1.00
774;DHT22;370;48.810;9.150;2023-12-20T16:27:57;6.40;1.00
774;DHT22;370;48.810;9.150;2023-12-20T16:30:25;6.30;1.00
774;DHT22;370;48.810;9.150;2023-12-20T16:32:52;6.20;1.00
774;DHT22;370;48.810;9.150;2023-12-20T16:35:19;6.20;1.00
774;DHT22;370;48.810;9.150;2023-12-20T16:37:46;6.10;1.00
774;DHT22;370;48.810;9.150;2023-12-20T16:40:14;6.10;1.00
774;DHT22;370;48.810;9.150;2023-12-20T16:42:41;6.00;1.00
774;DHT22;370;48.810;9.150;2023-12-20T16:45:08;6.00;1.20
774;DHT22;370;48.810;9.150;2023-12-20T16:47:36;5.90;2.00
774;DHT22;370;48.810;9.150;2023-12-20T16:50:04;5.80;2.70
774;DHT22;370;48.810;9.150;2023-12-20T16:52:31;5.80;3.10
774;DHT22;370;48.810;9.150;2023-12-20T16:54:58;5.70;3.50
774;DHT22;370;48.810;9.150;2023-12-20T16:57:25;5.70;4.20
774;DHT22;370;48.810;9.150;2023-12-20T16:59:52;5.70;5.10
774;DHT22;370;48.810;9.150;2023-12-20T17:02:19;5.60;5.40
774;DHT22;370;48.810;9.150;2023-12-20T17:04:47;5.70;5.30